Austonio, Texas
Current Conditions -  °F | °C
As of 8:15 PM on Thursday 20 Nov 2014 (Local Time) from KDKR Reporting Station
Overcast Overcast  
Wind Chill: 17°   Ceiling: 5000
Heat Index: 17°   Visibility: 10mi
Dew Point: 14°   Wind: 3mph
Humidity: 82%   Direction: 150°SSE
Pressure: 30.14"   Gusts: NA
Location:  31.2828°N, 95.4821°W
Report Text: KDKR 210215Z AUTO 15003KT 10SM OVC050 17/14 A3014 RMK AO2
Loading
Personal Weather Stations






























Interactive Weather Map New forecast layout! Learn more

10-Day Weather Forecast

Advertisements
Track Severe Weather on mobile